KUES

Waukesha County Airport

Waukesha, Wisconsin, USA
KUES 162320Z 1700/1724 31008KT P6SM SKC FM170800 32005KT P6SM SKC FM171500 36007KT P6SM FEW060 FM172300 03007KT P6SM FEW040
Issued Valid From Valid To
Jul-16 @ 23:20 UTC
(an hour ago)
Jul-17 @ 00:00 UTC
(23 minutes ago)
Jul-18 @ 00:00 UTC
(in 24 hours)
Jul-17 @ 00:00 to Jul-17 @ 08:00
KUES 162320Z 1700/1724 31008KT P6SM SKC
Wind Visibility Clouds
310° at 8 knots Greater than 6 miles
  • Clear skies
From Jul-17 @ 08:00 to Jul-17 @ 15:00
FM170800 32005KT P6SM SKC
Wind Visibility Clouds
320° at 5 knots Greater than 6 miles
  • Clear skies
From Jul-17 @ 15:00 to Jul-17 @ 23:00
FM171500 36007KT P6SM FEW060
Wind Visibility Clouds
360° at 7 knots Greater than 6 miles
  • Few at 6,000' AGL
From Jul-17 @ 23:00 to Jul-18 @ 00:00
FM172300 03007KT P6SM FEW040
Wind Visibility Clouds
30° at 7 knots Greater than 6 miles
  • Few at 4,000' AGL
KUES 162320Z 1700/1724 31008KT P6SM SKC FM170800 32005KT P6SM SKC FM171500 36007KT P6SM FEW060 FM172300 03007KT P6SM FEW040
Issued Jul-16 @ 23:20 UTC
(an hour ago)
Valid From Jul-17 @ 00:00 UTC
(23 minutes ago)
Valid To Jul-18 @ 00:00 UTC
(in 24 hours)
Jul-17 @ 00:00 - Jul-17 @ 08:00
Wind Visibility
310° at 8 knots Greater than 6 miles
Clouds
  • Clear skies
From Jul-17 @ 08:00 - Jul-17 @ 15:00
Wind Visibility
320° at 5 knots Greater than 6 miles
Clouds
  • Clear skies
From Jul-17 @ 15:00 - Jul-17 @ 23:00
Wind Visibility
360° at 7 knots Greater than 6 miles
Clouds
  • Few at 6,000' AGL
From Jul-17 @ 23:00 - Jul-18 @ 00:00
Wind Visibility
30° at 7 knots Greater than 6 miles
Clouds
  • Few at 4,000' AGL